sensor_id;sensor_type;location;lat;lon;timestamp;P1;durP1;ratioP1;P2;durP2;ratioP2
59659;SDS011;45534;52.690;6.268;2023-03-03T00:01:22;7.95;;;7.28;;
59659;SDS011;45534;52.690;6.268;2023-03-03T00:03:51;13.77;;;5.85;;
59659;SDS011;45534;52.690;6.268;2023-03-03T00:06:17;13.88;;;10.13;;
59659;SDS011;45534;52.690;6.268;2023-03-03T00:08:44;12.10;;;7.75;;
59659;SDS011;45534;52.690;6.268;2023-03-03T00:11:09;13.35;;;10.65;;
59659;SDS011;45534;52.690;6.268;2023-03-03T00:13:41;17.23;;;7.78;;
59659;SDS011;45534;52.690;6.268;2023-03-03T00:16:13;19.17;;;9.40;;
59659;SDS011;45534;52.690;6.268;2023-03-03T00:18:49;17.60;;;9.25;;
59659;SDS011;45534;52.690;6.268;2023-03-03T00:21:29;9.63;;;4.90;;
59659;SDS011;45534;52.690;6.268;2023-03-03T00:24:19;16.90;;;12.32;;
59659;SDS011;45534;52.690;6.268;2023-03-03T00:26:55;29.48;;;18.25;;
59659;SDS011;45534;52.690;6.268;2023-03-03T00:34:39;27.30;;;20.15;;
59659;SDS011;45534;52.690;6.268;2023-03-03T00:37:11;29.13;;;18.20;;
59659;SDS011;45534;52.690;6.268;2023-03-03T00:40:12;22.15;;;15.63;;
59659;SDS011;45534;52.690;6.268;2023-03-03T00:42:46;32.25;;;11.30;;
59659;SDS011;45534;52.690;6.268;2023-03-03T00:47:53;16.20;;;9.70;;
59659;SDS011;45534;52.690;6.268;2023-03-03T00:50:24;16.73;;;9.45;;
59659;SDS011;45534;52.690;6.268;2023-03-03T00:55:28;19.38;;;10.88;;
59659;SDS011;45534;52.690;6.268;2023-03-03T00:57:55;20.63;;;10.00;;
59659;SDS011;45534;52.690;6.268;2023-03-03T01:00:21;17.98;;;8.90;;
59659;SDS011;45534;52.690;6.268;2023-03-03T01:02:47;13.80;;;8.82;;
59659;SDS011;45534;52.690;6.268;2023-03-03T01:05:14;16.45;;;9.80;;
59659;SDS011;45534;52.690;6.268;2023-03-03T01:07:41;11.88;;;5.68;;
59659;SDS011;45534;52.690;6.268;2023-03-03T01:10:07;22.95;;;11.15;;
59659;SDS011;45534;52.690;6.268;2023-03-03T01:12:33;21.23;;;10.15;;
59659;SDS011;45534;52.690;6.268;2023-03-03T01:14:59;15.63;;;8.82;;
59659;SDS011;45534;52.690;6.268;2023-03-03T01:17:25;13.18;;;7.13;;
59659;SDS011;45534;52.690;6.268;2023-03-03T01:19:51;13.90;;;7.88;;
59659;SDS011;45534;52.690;6.268;2023-03-03T01:22:16;21.92;;;10.25;;
59659;SDS011;45534;52.690;6.268;2023-03-03T01:24:42;17.33;;;8.25;;
59659;SDS011;45534;52.690;6.268;2023-03-03T01:27:10;15.40;;;7.22;;
59659;SDS011;45534;52.690;6.268;2023-03-03T01:29:36;16.75;;;11.23;;
59659;SDS011;45534;52.690;6.268;2023-03-03T01:32:01;10.40;;;8.27;;
59659;SDS011;45534;52.690;6.268;2023-03-03T01:34:27;18.95;;;7.93;;
59659;SDS011;45534;52.690;6.268;2023-03-03T01:36:55;9.07;;;6.35;;
59659;SDS011;45534;52.690;6.268;2023-03-03T01:39:21;10.18;;;7.22;;
59659;SDS011;45534;52.690;6.268;2023-03-03T01:41:47;23.58;;;10.25;;
59659;SDS011;45534;52.690;6.268;2023-03-03T01:44:13;22.75;;;10.52;;
59659;SDS011;45534;52.690;6.268;2023-03-03T01:46:41;23.98;;;9.90;;
59659;SDS011;45534;52.690;6.268;2023-03-03T01:49:11;10.32;;;6.88;;
59659;SDS011;45534;52.690;6.268;2023-03-03T01:51:47;20.67;;;10.40;;
59659;SDS011;45534;52.690;6.268;2023-03-03T01:54:21;16.75;;;8.98;;
59659;SDS011;45534;52.690;6.268;2023-03-03T01:57:10;14.98;;;9.18;;
59659;SDS011;45534;52.690;6.268;2023-03-03T01:59:41;16.83;;;9.32;;
59659;SDS011;45534;52.690;6.268;2023-03-03T02:02:11;17.93;;;8.47;;
59659;SDS011;45534;52.690;6.268;2023-03-03T02:04:37;24.30;;;11.65;;
59659;SDS011;45534;52.690;6.268;2023-03-03T02:07:05;9.95;;;7.18;;
59659;SDS011;45534;52.690;6.268;2023-03-03T02:12:10;10.32;;;6.93;;
59659;SDS011;45534;52.690;6.268;2023-03-03T02:14:38;24.73;;;13.38;;
59659;SDS011;45534;52.690;6.268;2023-03-03T02:17:03;11.40;;;7.32;;
59659;SDS011;45534;52.690;6.268;2023-03-03T02:22:28;18.65;;;9.95;;
59659;SDS011;45534;52.690;6.268;2023-03-03T02:24:59;22.50;;;13.02;;
59659;SDS011;45534;52.690;6.268;2023-03-03T02:27:27;19.40;;;7.85;;
59659;SDS011;45534;52.690;6.268;2023-03-03T02:29:55;17.48;;;11.95;;
59659;SDS011;45534;52.690;6.268;2023-03-03T02:32:22;14.43;;;8.55;;
59659;SDS011;45534;52.690;6.268;2023-03-03T02:34:49;18.15;;;10.70;;
59659;SDS011;45534;52.690;6.268;2023-03-03T02:37:16;9.57;;;6.30;;
59659;SDS011;45534;52.690;6.268;2023-03-03T02:39:43;8.82;;;5.97;;
59659;SDS011;45534;52.690;6.268;2023-03-03T02:42:20;13.13;;;10.25;;
59659;SDS011;45534;52.690;6.268;2023-03-03T02:44:49;14.68;;;10.43;;
59659;SDS011;45534;52.690;6.268;2023-03-03T02:47:15;26.90;;;16.73;;
59659;SDS011;45534;52.690;6.268;2023-03-03T02:49:41;15.02;;;11.48;;
59659;SDS011;45534;52.690;6.268;2023-03-03T02:52:08;17.42;;;11.98;;
59659;SDS011;45534;52.690;6.268;2023-03-03T02:54:35;17.15;;;9.98;;
59659;SDS011;45534;52.690;6.268;2023-03-03T02:57:02;16.63;;;13.27;;
59659;SDS011;45534;52.690;6.268;2023-03-03T02:59:28;10.73;;;6.18;;
59659;SDS011;45534;52.690;6.268;2023-03-03T03:01:56;9.88;;;5.70;;
59659;SDS011;45534;52.690;6.268;2023-03-03T03:04:25;15.27;;;10.65;;
59659;SDS011;45534;52.690;6.268;2023-03-03T03:06:51;9.23;;;5.15;;
59659;SDS011;45534;52.690;6.268;2023-03-03T03:09:19;17.83;;;7.22;;
59659;SDS011;45534;52.690;6.268;2023-03-03T03:11:46;8.80;;;6.80;;
59659;SDS011;45534;52.690;6.268;2023-03-03T03:14:12;16.00;;;9.65;;
59659;SDS011;45534;52.690;6.268;2023-03-03T03:16:38;16.27;;;8.65;;
59659;SDS011;45534;52.690;6.268;2023-03-03T03:19:05;23.83;;;12.40;;
59659;SDS011;45534;52.690;6.268;2023-03-03T03:21:31;25.05;;;12.90;;
59659;SDS011;45534;52.690;6.268;2023-03-03T03:23:58;21.00;;;9.55;;
59659;SDS011;45534;52.690;6.268;2023-03-03T03:26:24;17.67;;;14.32;;
59659;SDS011;45534;52.690;6.268;2023-03-03T03:28:50;24.75;;;12.38;;
59659;SDS011;45534;52.690;6.268;2023-03-03T03:31:16;23.75;;;14.95;;
59659;SDS011;45534;52.690;6.268;2023-03-03T03:33:42;14.80;;;9.13;;
59659;SDS011;45534;52.690;6.268;2023-03-03T03:36:08;41.28;;;10.52;;
59659;SDS011;45534;52.690;6.268;2023-03-03T03:38:34;8.13;;;5.00;;
59659;SDS011;45534;52.690;6.268;2023-03-03T03:41:01;17.25;;;7.50;;
59659;SDS011;45534;52.690;6.268;2023-03-03T03:43:27;16.35;;;10.02;;
59659;SDS011;45534;52.690;6.268;2023-03-03T03:45:53;22.95;;;10.85;;
59659;SDS011;45534;52.690;6.268;2023-03-03T03:48:19;9.98;;;7.80;;
59659;SDS011;45534;52.690;6.268;2023-03-03T03:50:48;11.98;;;6.35;;
59659;SDS011;45534;52.690;6.268;2023-03-03T03:53:15;12.63;;;10.23;;
59659;SDS011;45534;52.690;6.268;2023-03-03T03:55:41;18.55;;;11.32;;
59659;SDS011;45534;52.690;6.268;2023-03-03T03:58:08;14.43;;;9.23;;
59659;SDS011;45534;52.690;6.268;2023-03-03T04:00:38;5.43;;;3.65;;
59659;SDS011;45534;52.690;6.268;2023-03-03T04:03:05;20.45;;;7.47;;
59659;SDS011;45534;52.690;6.268;2023-03-03T04:05:31;6.55;;;5.90;;
59659;SDS011;45534;52.690;6.268;2023-03-03T04:07:57;17.52;;;7.18;;
59659;SDS011;45534;52.690;6.268;2023-03-03T04:10:22;11.05;;;7.35;;
59659;SDS011;45534;52.690;6.268;2023-03-03T04:12:48;18.25;;;8.48;;
59659;SDS011;45534;52.690;6.268;2023-03-03T04:15:14;36.83;;;10.50;;
59659;SDS011;45534;52.690;6.268;2023-03-03T04:17:39;29.73;;;9.55;;
59659;SDS011;45534;52.690;6.268;2023-03-03T04:20:06;52.47;;;9.45;;
59659;SDS011;45534;52.690;6.268;2023-03-03T04:22:32;30.15;;;13.88;;
59659;SDS011;45534;52.690;6.268;2023-03-03T04:25:00;7.55;;;4.47;;
59659;SDS011;45534;52.690;6.268;2023-03-03T04:27:33;27.33;;;10.18;;
59659;SDS011;45534;52.690;6.268;2023-03-03T04:29:59;17.02;;;10.05;;
59659;SDS011;45534;52.690;6.268;2023-03-03T04:32:25;25.08;;;7.68;;
59659;SDS011;45534;52.690;6.268;2023-03-03T04:34:52;13.93;;;6.82;;
59659;SDS011;45534;52.690;6.268;2023-03-03T04:37:18;19.95;;;8.88;;
59659;SDS011;45534;52.690;6.268;2023-03-03T04:39:43;22.73;;;8.27;;
59659;SDS011;45534;52.690;6.268;2023-03-03T04:42:09;10.00;;;5.63;;
59659;SDS011;45534;52.690;6.268;2023-03-03T04:44:35;26.60;;;9.95;;
59659;SDS011;45534;52.690;6.268;2023-03-03T04:47:01;39.75;;;9.52;;
59659;SDS011;45534;52.690;6.268;2023-03-03T04:49:26;31.35;;;7.28;;
59659;SDS011;45534;52.690;6.268;2023-03-03T04:51:52;27.08;;;7.97;;
59659;SDS011;45534;52.690;6.268;2023-03-03T04:54:18;20.27;;;8.25;;
59659;SDS011;45534;52.690;6.268;2023-03-03T04:56:43;13.93;;;8.68;;
59659;SDS011;45534;52.690;6.268;2023-03-03T04:59:09;28.65;;;8.60;;
59659;SDS011;45534;52.690;6.268;2023-03-03T05:01:35;35.42;;;7.05;;
59659;SDS011;45534;52.690;6.268;2023-03-03T05:04:00;7.07;;;4.40;;
59659;SDS011;45534;52.690;6.268;2023-03-03T05:06:26;14.10;;;5.53;;
59659;SDS011;45534;52.690;6.268;2023-03-03T05:08:52;31.23;;;7.72;;
59659;SDS011;45534;52.690;6.268;2023-03-03T05:11:18;14.98;;;7.07;;
59659;SDS011;45534;52.690;6.268;2023-03-03T05:13:44;33.42;;;8.02;;
59659;SDS011;45534;52.690;6.268;2023-03-03T05:16:10;20.27;;;9.18;;
59659;SDS011;45534;52.690;6.268;2023-03-03T05:18:36;11.15;;;6.20;;
59659;SDS011;45534;52.690;6.268;2023-03-03T05:21:02;5.40;;;4.13;;
59659;SDS011;45534;52.690;6.268;2023-03-03T05:23:28;22.95;;;8.43;;
59659;SDS011;45534;52.690;6.268;2023-03-03T05:25:53;38.75;;;7.65;;
59659;SDS011;45534;52.690;6.268;2023-03-03T05:28:19;9.23;;;4.75;;
59659;SDS011;45534;52.690;6.268;2023-03-03T05:30:45;26.80;;;9.38;;
59659;SDS011;45534;52.690;6.268;2023-03-03T05:33:12;28.25;;;9.68;;
59659;SDS011;45534;52.690;6.268;2023-03-03T05:35:39;42.08;;;7.93;;
59659;SDS011;45534;52.690;6.268;2023-03-03T05:38:04;52.88;;;11.18;;
59659;SDS011;45534;52.690;6.268;2023-03-03T05:40:30;21.02;;;8.85;;
59659;SDS011;45534;52.690;6.268;2023-03-03T05:42:56;12.73;;;6.53;;
59659;SDS011;45534;52.690;6.268;2023-03-03T05:45:22;18.85;;;8.68;;
59659;SDS011;45534;52.690;6.268;2023-03-03T05:47:51;27.63;;;7.13;;
59659;SDS011;45534;52.690;6.268;2023-03-03T05:50:18;14.15;;;7.85;;
59659;SDS011;45534;52.690;6.268;2023-03-03T05:52:48;32.92;;;6.38;;
59659;SDS011;45534;52.690;6.268;2023-03-03T05:55:14;27.95;;;8.48;;
59659;SDS011;45534;52.690;6.268;2023-03-03T05:57:40;27.40;;;8.40;;
59659;SDS011;45534;52.690;6.268;2023-03-03T06:00:06;29.88;;;8.20;;
59659;SDS011;45534;52.690;6.268;2023-03-03T06:02:33;37.97;;;8.82;;
59659;SDS011;45534;52.690;6.268;2023-03-03T06:04:58;24.80;;;7.72;;
59659;SDS011;45534;52.690;6.268;2023-03-03T06:07:24;20.20;;;6.47;;
59659;SDS011;45534;52.690;6.268;2023-03-03T06:09:50;26.58;;;9.23;;
59659;SDS011;45534;52.690;6.268;2023-03-03T06:12:16;14.32;;;6.72;;
59659;SDS011;45534;52.690;6.268;2023-03-03T06:14:42;37.85;;;9.25;;
59659;SDS011;45534;52.690;6.268;2023-03-03T06:17:08;30.98;;;10.70;;
59659;SDS011;45534;52.690;6.268;2023-03-03T06:19:35;43.90;;;10.40;;
59659;SDS011;45534;52.690;6.268;2023-03-03T06:22:01;64.85;;;7.90;;
59659;SDS011;45534;52.690;6.268;2023-03-03T06:24:27;12.85;;;5.35;;
59659;SDS011;45534;52.690;6.268;2023-03-03T06:26:55;13.65;;;7.63;;
59659;SDS011;45534;52.690;6.268;2023-03-03T06:29:21;17.30;;;6.78;;
59659;SDS011;45534;52.690;6.268;2023-03-03T06:31:47;5.97;;;4.82;;
59659;SDS011;45534;52.690;6.268;2023-03-03T06:34:13;4.85;;;3.70;;
59659;SDS011;45534;52.690;6.268;2023-03-03T06:36:38;9.57;;;3.92;;
59659;SDS011;45534;52.690;6.268;2023-03-03T06:39:04;7.82;;;3.90;;
59659;SDS011;45534;52.690;6.268;2023-03-03T06:41:30;5.18;;;2.25;;
59659;SDS011;45534;52.690;6.268;2023-03-03T06:43:56;4.70;;;3.33;;
59659;SDS011;45534;52.690;6.268;2023-03-03T06:46:22;3.58;;;2.38;;
59659;SDS011;45534;52.690;6.268;2023-03-03T06:48:48;8.57;;;4.07;;
59659;SDS011;45534;52.690;6.268;2023-03-03T06:51:33;6.85;;;4.43;;
59659;SDS011;45534;52.690;6.268;2023-03-03T06:54:05;15.93;;;5.28;;
59659;SDS011;45534;52.690;6.268;2023-03-03T06:56:36;14.93;;;4.53;;
59659;SDS011;45534;52.690;6.268;2023-03-03T06:59:10;2.20;;;1.83;;
59659;SDS011;45534;52.690;6.268;2023-03-03T07:01:41;16.67;;;6.75;;
59659;SDS011;45534;52.690;6.268;2023-03-03T07:04:26;14.70;;;4.05;;
59659;SDS011;45534;52.690;6.268;2023-03-03T07:06:55;21.90;;;7.00;;
59659;SDS011;45534;52.690;6.268;2023-03-03T07:09:24;28.00;;;5.40;;
59659;SDS011;45534;52.690;6.268;2023-03-03T07:11:54;17.58;;;7.15;;
59659;SDS011;45534;52.690;6.268;2023-03-03T07:14:25;15.90;;;5.72;;
59659;SDS011;45534;52.690;6.268;2023-03-03T07:16:51;21.10;;;6.75;;
59659;SDS011;45534;52.690;6.268;2023-03-03T07:19:24;21.77;;;7.00;;
59659;SDS011;45534;52.690;6.268;2023-03-03T07:21:58;7.85;;;3.80;;
59659;SDS011;45534;52.690;6.268;2023-03-03T07:24:56;47.20;;;5.13;;
59659;SDS011;45534;52.690;6.268;2023-03-03T07:27:27;35.70;;;5.15;;
59659;SDS011;45534;52.690;6.268;2023-03-03T07:30:08;25.63;;;6.25;;
59659;SDS011;45534;52.690;6.268;2023-03-03T07:32:44;21.17;;;5.13;;
59659;SDS011;45534;52.690;6.268;2023-03-03T07:41:02;6.75;;;4.22;;
59659;SDS011;45534;52.690;6.268;2023-03-03T07:43:36;18.52;;;4.20;;
59659;SDS011;45534;52.690;6.268;2023-03-03T07:48:58;7.47;;;4.55;;
59659;SDS011;45534;52.690;6.268;2023-03-03T07:51:28;9.10;;;4.45;;
59659;SDS011;45534;52.690;6.268;2023-03-03T07:54:25;9.23;;;4.22;;
59659;SDS011;45534;52.690;6.268;2023-03-03T08:07:57;16.27;;;4.25;;
59659;SDS011;45534;52.690;6.268;2023-03-03T08:10:39;8.38;;;3.72;;
59659;SDS011;45534;52.690;6.268;2023-03-03T08:13:15;10.45;;;5.13;;
59659;SDS011;45534;52.690;6.268;2023-03-03T08:15:43;13.65;;;5.78;;
59659;SDS011;45534;52.690;6.268;2023-03-03T08:18:14;10.07;;;5.57;;
59659;SDS011;45534;52.690;6.268;2023-03-03T08:20:58;4.40;;;3.85;;
59659;SDS011;45534;52.690;6.268;2023-03-03T08:23:27;9.10;;;5.95;;
59659;SDS011;45534;52.690;6.268;2023-03-03T08:25:52;9.73;;;5.25;;
59659;SDS011;45534;52.690;6.268;2023-03-03T08:28:18;21.90;;;5.90;;
59659;SDS011;45534;52.690;6.268;2023-03-03T08:30:45;6.95;;;4.13;;
59659;SDS011;45534;52.690;6.268;2023-03-03T08:33:11;9.50;;;4.70;;
59659;SDS011;45534;52.690;6.268;2023-03-03T08:35:38;19.92;;;5.57;;
59659;SDS011;45534;52.690;6.268;2023-03-03T08:38:04;16.20;;;3.97;;
59659;SDS011;45534;52.690;6.268;2023-03-03T08:40:30;8.63;;;4.72;;
59659;SDS011;45534;52.690;6.268;2023-03-03T08:42:56;3.88;;;3.20;;
59659;SDS011;45534;52.690;6.268;2023-03-03T08:45:22;5.47;;;3.47;;
59659;SDS011;45534;52.690;6.268;2023-03-03T08:47:49;10.85;;;4.68;;
59659;SDS011;45534;52.690;6.268;2023-03-03T08:50:15;4.32;;;1.80;;
59659;SDS011;45534;52.690;6.268;2023-03-03T08:52:41;7.70;;;4.07;;
59659;SDS011;45534;52.690;6.268;2023-03-03T08:55:07;8.63;;;5.20;;
59659;SDS011;45534;52.690;6.268;2023-03-03T08:57:33;1.20;;;1.20;;
59659;SDS011;45534;52.690;6.268;2023-03-03T08:59:59;8.98;;;4.30;;
59659;SDS011;45534;52.690;6.268;2023-03-03T09:02:24;7.93;;;4.95;;
59659;SDS011;45534;52.690;6.268;2023-03-03T09:04:50;9.73;;;5.13;;
59659;SDS011;45534;52.690;6.268;2023-03-03T09:07:15;14.82;;;6.40;;
59659;SDS011;45534;52.690;6.268;2023-03-03T09:09:42;8.40;;;5.10;;
59659;SDS011;45534;52.690;6.268;2023-03-03T09:12:18;11.07;;;7.78;;
59659;SDS011;45534;52.690;6.268;2023-03-03T09:14:49;4.18;;;3.70;;
59659;SDS011;45534;52.690;6.268;2023-03-03T09:17:22;7.55;;;4.60;;
59659;SDS011;45534;52.690;6.268;2023-03-03T09:19:50;7.88;;;4.25;;
59659;SDS011;45534;52.690;6.268;2023-03-03T09:22:22;1.98;;;1.88;;
59659;SDS011;45534;52.690;6.268;2023-03-03T09:24:51;3.05;;;2.33;;
59659;SDS011;45534;52.690;6.268;2023-03-03T09:27:24;5.97;;;3.72;;
59659;SDS011;45534;52.690;6.268;2023-03-03T09:29:53;11.65;;;4.07;;
59659;SDS011;45534;52.690;6.268;2023-03-03T09:35:45;7.30;;;4.10;;
59659;SDS011;45534;52.690;6.268;2023-03-03T09:38:14;9.07;;;3.53;;
59659;SDS011;45534;52.690;6.268;2023-03-03T09:40:53;8.35;;;3.83;;
59659;SDS011;45534;52.690;6.268;2023-03-03T09:48:51;8.50;;;6.07;;
59659;SDS011;45534;52.690;6.268;2023-03-03T09:56:46;2.15;;;1.95;;
59659;SDS011;45534;52.690;6.268;2023-03-03T10:01:50;9.50;;;4.05;;
59659;SDS011;45534;52.690;6.268;2023-03-03T10:18:27;7.75;;;3.70;;
59659;SDS011;45534;52.690;6.268;2023-03-03T10:20:44;10.48;;;3.50;;
59659;SDS011;45534;52.690;6.268;2023-03-03T10:23:36;7.78;;;2.90;;
59659;SDS011;45534;52.690;6.268;2023-03-03T10:27:16;4.72;;;3.83;;
59659;SDS011;45534;52.690;6.268;2023-03-03T10:40:25;4.32;;;3.25;;
59659;SDS011;45534;52.690;6.268;2023-03-03T10:52:16;6.07;;;3.95;;
59659;SDS011;45534;52.690;6.268;2023-03-03T11:00:30;6.32;;;4.10;;
59659;SDS011;45534;52.690;6.268;2023-03-03T11:08:16;6.28;;;3.60;;
59659;SDS011;45534;52.690;6.268;2023-03-03T11:19:16;5.45;;;3.58;;
59659;SDS011;45534;52.690;6.268;2023-03-03T11:43:41;3.70;;;2.70;;
59659;SDS011;45534;52.690;6.268;2023-03-03T11:46:47;5.18;;;3.55;;
59659;SDS011;45534;52.690;6.268;2023-03-03T11:49:15;2.22;;;2.03;;
59659;SDS011;45534;52.690;6.268;2023-03-03T11:54:58;3.72;;;2.63;;
59659;SDS011;45534;52.690;6.268;2023-03-03T12:00:04;4.28;;;3.30;;
59659;SDS011;45534;52.690;6.268;2023-03-03T12:05:41;7.10;;;5.32;;
59659;SDS011;45534;52.690;6.268;2023-03-03T12:28:52;2.80;;;2.30;;
59659;SDS011;45534;52.690;6.268;2023-03-03T12:34:07;4.65;;;2.40;;
59659;SDS011;45534;52.690;6.268;2023-03-03T12:39:29;3.45;;;2.55;;
59659;SDS011;45534;52.690;6.268;2023-03-03T12:42:11;2.45;;;2.25;;
59659;SDS011;45534;52.690;6.268;2023-03-03T12:45:08;4.97;;;2.15;;
59659;SDS011;45534;52.690;6.268;2023-03-03T12:48:04;8.48;;;4.20;;
59659;SDS011;45534;52.690;6.268;2023-03-03T12:53:58;12.48;;;7.03;;
59659;SDS011;45534;52.690;6.268;2023-03-03T12:56:40;7.63;;;5.38;;
59659;SDS011;45534;52.690;6.268;2023-03-03T13:04:55;6.72;;;3.97;;
59659;SDS011;45534;52.690;6.268;2023-03-03T13:13:38;7.90;;;4.75;;
59659;SDS011;45534;52.690;6.268;2023-03-03T13:20:58;13.32;;;4.53;;
59659;SDS011;45534;52.690;6.268;2023-03-03T13:26:16;5.18;;;3.55;;
59659;SDS011;45534;52.690;6.268;2023-03-03T13:31:40;9.45;;;4.32;;
59659;SDS011;45534;52.690;6.268;2023-03-03T13:34:56;4.30;;;3.88;;
59659;SDS011;45534;52.690;6.268;2023-03-03T13:37:45;5.57;;;2.40;;
59659;SDS011;45534;52.690;6.268;2023-03-03T13:42:45;2.13;;;2.03;;
59659;SDS011;45534;52.690;6.268;2023-03-03T13:47:47;2.30;;;2.10;;
59659;SDS011;45534;52.690;6.268;2023-03-03T13:56:07;2.50;;;2.25;;
59659;SDS011;45534;52.690;6.268;2023-03-03T14:07:29;1.98;;;1.83;;
59659;SDS011;45534;52.690;6.268;2023-03-03T14:10:13;1.50;;;1.40;;
59659;SDS011;45534;52.690;6.268;2023-03-03T14:20:33;3.88;;;1.88;;
59659;SDS011;45534;52.690;6.268;2023-03-03T14:23:13;1.58;;;1.58;;
59659;SDS011;45534;52.690;6.268;2023-03-03T14:28:29;1.60;;;1.52;;
59659;SDS011;45534;52.690;6.268;2023-03-03T14:31:28;2.22;;;1.95;;
59659;SDS011;45534;52.690;6.268;2023-03-03T14:33:57;18.30;;;2.50;;
59659;SDS011;45534;52.690;6.268;2023-03-03T14:36:27;4.05;;;2.05;;
59659;SDS011;45534;52.690;6.268;2023-03-03T14:38:56;5.38;;;3.33;;
59659;SDS011;45534;52.690;6.268;2023-03-03T14:41:32;3.85;;;2.33;;
59659;SDS011;45534;52.690;6.268;2023-03-03T14:47:04;2.30;;;1.67;;
59659;SDS011;45534;52.690;6.268;2023-03-03T14:49:37;2.05;;;1.70;;
59659;SDS011;45534;52.690;6.268;2023-03-03T14:52:11;1.65;;;1.55;;
59659;SDS011;45534;52.690;6.268;2023-03-03T14:54:45;1.00;;;1.00;;
59659;SDS011;45534;52.690;6.268;2023-03-03T14:57:22;3.22;;;2.08;;
59659;SDS011;45534;52.690;6.268;2023-03-03T15:02:37;3.03;;;2.55;;
59659;SDS011;45534;52.690;6.268;2023-03-03T15:05:12;6.60;;;1.90;;
59659;SDS011;45534;52.690;6.268;2023-03-03T15:07:45;2.95;;;2.67;;
59659;SDS011;45534;52.690;6.268;2023-03-03T15:10:14;8.98;;;1.77;;
59659;SDS011;45534;52.690;6.268;2023-03-03T15:12:54;5.82;;;1.98;;
59659;SDS011;45534;52.690;6.268;2023-03-03T15:15:21;6.55;;;2.20;;
59659;SDS011;45534;52.690;6.268;2023-03-03T15:25:46;9.33;;;2.43;;
59659;SDS011;45534;52.690;6.268;2023-03-03T15:30:56;6.57;;;2.22;;
59659;SDS011;45534;52.690;6.268;2023-03-03T15:33:40;2.83;;;2.60;;
59659;SDS011;45534;52.690;6.268;2023-03-03T15:41:40;3.17;;;2.75;;
59659;SDS011;45534;52.690;6.268;2023-03-03T15:49:33;9.68;;;2.63;;
59659;SDS011;45534;52.690;6.268;2023-03-03T15:52:25;6.10;;;2.55;;
59659;SDS011;45534;52.690;6.268;2023-03-03T15:55:16;3.10;;;2.00;;
59659;SDS011;45534;52.690;6.268;2023-03-03T16:03:46;3.15;;;2.40;;
59659;SDS011;45534;52.690;6.268;2023-03-03T16:06:44;6.18;;;2.65;;
59659;SDS011;45534;52.690;6.268;2023-03-03T16:17:39;4.15;;;2.65;;
59659;SDS011;45534;52.690;6.268;2023-03-03T16:31:01;4.53;;;1.75;;
59659;SDS011;45534;52.690;6.268;2023-03-03T16:33:39;6.07;;;5.45;;
59659;SDS011;45534;52.690;6.268;2023-03-03T16:36:24;8.02;;;2.55;;
59659;SDS011;45534;52.690;6.268;2023-03-03T16:39:07;12.30;;;2.70;;
59659;SDS011;45534;52.690;6.268;2023-03-03T16:42:02;3.30;;;1.52;;
59659;SDS011;45534;52.690;6.268;2023-03-03T16:50:38;17.30;;;5.78;;
59659;SDS011;45534;52.690;6.268;2023-03-03T17:08:04;9.20;;;3.25;;
59659;SDS011;45534;52.690;6.268;2023-03-03T17:10:41;6.43;;;2.97;;
59659;SDS011;45534;52.690;6.268;2023-03-03T17:13:24;24.50;;;5.88;;
59659;SDS011;45534;52.690;6.268;2023-03-03T17:16:11;11.95;;;2.88;;
59659;SDS011;45534;52.690;6.268;2023-03-03T17:21:50;5.40;;;2.92;;
59659;SDS011;45534;52.690;6.268;2023-03-03T17:24:23;2.00;;;1.90;;
59659;SDS011;45534;52.690;6.268;2023-03-03T17:29:53;18.20;;;5.47;;
59659;SDS011;45534;52.690;6.268;2023-03-03T17:37:45;10.40;;;3.60;;
59659;SDS011;45534;52.690;6.268;2023-03-03T17:43:06;9.88;;;3.20;;
59659;SDS011;45534;52.690;6.268;2023-03-03T17:45:43;6.72;;;2.58;;
59659;SDS011;45534;52.690;6.268;2023-03-03T17:54:38;14.52;;;4.28;;
59659;SDS011;45534;52.690;6.268;2023-03-03T18:08:30;12.18;;;3.97;;
59659;SDS011;45534;52.690;6.268;2023-03-03T18:11:13;15.07;;;2.65;;
59659;SDS011;45534;52.690;6.268;2023-03-03T18:16:43;24.17;;;3.22;;
59659;SDS011;45534;52.690;6.268;2023-03-03T18:25:09;6.53;;;3.92;;
59659;SDS011;45534;52.690;6.268;2023-03-03T18:27:36;13.63;;;3.33;;
59659;SDS011;45534;52.690;6.268;2023-03-03T18:37:57;6.30;;;2.95;;
59659;SDS011;45534;52.690;6.268;2023-03-03T18:41:04;10.68;;;3.60;;
59659;SDS011;45534;52.690;6.268;2023-03-03T18:46:44;12.82;;;3.42;;
59659;SDS011;45534;52.690;6.268;2023-03-03T19:04:43;8.43;;;2.80;;
59659;SDS011;45534;52.690;6.268;2023-03-03T19:07:22;5.65;;;2.47;;
59659;SDS011;45534;52.690;6.268;2023-03-03T19:10:40;10.80;;;2.05;;
59659;SDS011;45534;52.690;6.268;2023-03-03T19:15:59;7.93;;;3.00;;
59659;SDS011;45534;52.690;6.268;2023-03-03T19:18:32;20.23;;;2.53;;
59659;SDS011;45534;52.690;6.268;2023-03-03T19:26:26;13.73;;;2.60;;
59659;SDS011;45534;52.690;6.268;2023-03-03T19:31:32;15.15;;;4.25;;
59659;SDS011;45534;52.690;6.268;2023-03-03T19:37:33;2.38;;;2.17;;
59659;SDS011;45534;52.690;6.268;2023-03-03T19:51:57;10.60;;;3.03;;
59659;SDS011;45534;52.690;6.268;2023-03-03T19:57:10;5.22;;;2.55;;
59659;SDS011;45534;52.690;6.268;2023-03-03T20:00:40;2.75;;;2.22;;
59659;SDS011;45534;52.690;6.268;2023-03-03T20:10:37;14.48;;;5.03;;
59659;SDS011;45534;52.690;6.268;2023-03-03T20:26:54;15.05;;;4.00;;
59659;SDS011;45534;52.690;6.268;2023-03-03T20:32:03;26.90;;;8.00;;
59659;SDS011;45534;52.690;6.268;2023-03-03T20:34:50;11.13;;;2.70;;
59659;SDS011;45534;52.690;6.268;2023-03-03T20:37:30;18.05;;;6.85;;
59659;SDS011;45534;52.690;6.268;2023-03-03T20:43:07;18.92;;;5.00;;
59659;SDS011;45534;52.690;6.268;2023-03-03T20:46:06;2.70;;;2.50;;
59659;SDS011;45534;52.690;6.268;2023-03-03T20:49:10;15.45;;;4.53;;
59659;SDS011;45534;52.690;6.268;2023-03-03T20:52:05;16.20;;;4.93;;
59659;SDS011;45534;52.690;6.268;2023-03-03T20:59:55;4.07;;;2.50;;
59659;SDS011;45534;52.690;6.268;2023-03-03T21:02:29;12.38;;;2.75;;
59659;SDS011;45534;52.690;6.268;2023-03-03T21:05:17;7.40;;;4.13;;
59659;SDS011;45534;52.690;6.268;2023-03-03T21:08:04;4.53;;;2.58;;
59659;SDS011;45534;52.690;6.268;2023-03-03T21:10:35;17.98;;;4.70;;
59659;SDS011;45534;52.690;6.268;2023-03-03T21:21:28;7.15;;;3.55;;
59659;SDS011;45534;52.690;6.268;2023-03-03T21:23:59;20.30;;;5.28;;
59659;SDS011;45534;52.690;6.268;2023-03-03T21:29:27;19.38;;;4.68;;
59659;SDS011;45534;52.690;6.268;2023-03-03T21:31:58;11.55;;;4.47;;
59659;SDS011;45534;52.690;6.268;2023-03-03T21:37:00;11.30;;;2.70;;
59659;SDS011;45534;52.690;6.268;2023-03-03T21:39:29;11.25;;;4.30;;
59659;SDS011;45534;52.690;6.268;2023-03-03T21:44:41;8.10;;;2.70;;
59659;SDS011;45534;52.690;6.268;2023-03-03T21:47:09;9.90;;;3.85;;
59659;SDS011;45534;52.690;6.268;2023-03-03T21:49:39;15.88;;;4.35;;
59659;SDS011;45534;52.690;6.268;2023-03-03T21:52:09;10.10;;;4.07;;
59659;SDS011;45534;52.690;6.268;2023-03-03T21:54:36;11.85;;;4.00;;
59659;SDS011;45534;52.690;6.268;2023-03-03T21:57:02;14.30;;;5.22;;
59659;SDS011;45534;52.690;6.268;2023-03-03T21:59:28;22.02;;;4.05;;
59659;SDS011;45534;52.690;6.268;2023-03-03T22:01:54;19.92;;;3.75;;
59659;SDS011;45534;52.690;6.268;2023-03-03T22:04:20;4.30;;;2.47;;
59659;SDS011;45534;52.690;6.268;2023-03-03T22:06:46;14.50;;;4.35;;
59659;SDS011;45534;52.690;6.268;2023-03-03T22:09:11;20.63;;;5.53;;
59659;SDS011;45534;52.690;6.268;2023-03-03T22:11:37;15.63;;;4.47;;
59659;SDS011;45534;52.690;6.268;2023-03-03T22:14:04;6.25;;;2.20;;
59659;SDS011;45534;52.690;6.268;2023-03-03T22:16:30;9.90;;;3.30;;
59659;SDS011;45534;52.690;6.268;2023-03-03T22:18:56;11.10;;;3.38;;
59659;SDS011;45534;52.690;6.268;2023-03-03T22:21:21;5.75;;;2.60;;